Time;durP1;ratioP1;P1;durP2;ratioP2;P2;SDS_P1;SDS_P2;PMS_P1;PMS_P2;Temp;Humidity;BMP_temperature;BMP_pressure;BME280_temperature;BME280_humidity;BME280_pressure;Samples;Min_cycle;Max_cycle;Signal;HPM_P1;HPM_P2
2022/01/07 00:01:35;;;;;;;;;;;0.20;99.90;;;0.49;100.00;100943.06;4907326;29;20034;-81
2022/01/07 00:04:03;;;;;;;;;;;2.10;99.90;;;0.49;100.00;100936.16;4921731;28;19938;-83
2022/01/07 00:06:50;;;;;;;;;;;1.00;99.90;;;0.48;100.00;100939.59;4930140;29;20386;-83
2022/01/07 00:09:18;;;;;;;;;;;0.90;99.90;;;0.46;100.00;100933.50;4925540;29;20017;-81
2022/01/07 00:11:45;;;;;;;;;;;3.70;99.90;;;0.47;100.00;100939.53;4956512;29;20397;-80
2022/01/07 00:14:15;;;;;;;;;;;3.50;99.90;;;0.46;100.00;100936.06;4922376;29;19939;-82
2022/01/07 00:16:42;;;;;;;;;;;0.90;99.90;;;0.46;100.00;100941.25;4939208;29;19977;-82
2022/01/07 00:19:19;;;;;;;;;;;1.30;99.90;;;0.45;100.00;100933.44;4938793;29;20497;-81
2022/01/07 00:21:46;;;;;;;;;;;3.00;99.90;;;0.42;100.00;100929.94;4936460;29;19961;-81
2022/01/07 00:24:13;;;;;;;;;;;0.90;99.90;;;0.44;100.00;100921.31;4951332;28;19930;-81
2022/01/07 00:26:40;;;;;;;;;;;2.00;99.90;;;0.45;100.00;100929.16;4919158;29;19945;-81
2022/01/07 00:29:08;;;;;;;;;;;4.50;99.90;;;0.50;100.00;100922.38;4935884;29;19952;-82
2022/01/07 00:31:34;;;;;;;;;;;3.70;99.90;;;0.45;100.00;100921.38;4949033;28;19930;-81
2022/01/07 00:34:02;;;;;;;;;;;2.40;99.90;;;0.47;100.00;100914.53;4936528;29;19927;-80
2022/01/07 00:36:29;;;;;;;;;;;3.30;99.90;;;0.53;100.00;100914.66;4969833;28;19994;-81
2022/01/07 00:38:56;;;;;;;;;;;2.70;99.90;;;0.53;100.00;100912.09;4951805;29;19941;-81
2022/01/07 00:41:22;;;;;;;;;;;1.40;99.90;;;0.48;100.00;100912.81;4934789;28;19931;-81
2022/01/07 00:43:50;;;;;;;;;;;3.80;99.90;;;0.50;100.00;100918.91;4950163;28;19932;-84
2022/01/07 00:46:19;;;;;;;;;;;1.10;99.90;;;0.44;100.00;100913.56;4934989;29;19926;-85
2022/01/07 00:48:46;;;;;;;;;;;2.10;99.90;;;0.52;100.00;100919.84;4951811;28;20353;-83
2022/01/07 00:51:13;;;;;;;;;;;3.90;99.90;;;0.53;100.00;100921.59;4937409;29;19931;-84
2022/01/07 00:53:41;;;;;;;;;;;4.90;99.90;;;0.54;100.00;100913.84;4952534;28;20461;-84
2022/01/07 00:56:08;;;;;;;;;;;-1.50;99.90;;;0.48;100.00;100910.25;4968870;28;19966;-84
2022/01/07 00:58:35;;;;;;;;;;;4.20;99.90;;;0.50;100.00;100912.00;4937635;29;19970;-83
2022/01/07 01:01:03;;;;;;;;;;;4.60;99.90;;;0.48;100.00;100903.34;4950468;29;19937;-84
2022/01/07 01:03:31;;;;;;;;;;;1.70;99.90;;;0.41;100.00;100901.44;4951063;28;19930;-85
2022/01/07 01:05:58;;;;;;;;;;;3.60;99.90;;;0.36;100.00;100897.81;4938217;28;19949;-85
2022/01/07 01:08:26;;;;;;;;;;;2.50;99.90;;;0.40;100.00;100910.03;4938869;28;20616;-82
2022/01/07 01:10:53;;;;;;;;;;;5.00;99.90;;;0.41;100.00;100910.06;4955292;28;19930;-85
2022/01/07 01:13:21;;;;;;;;;;;3.40;99.90;;;0.44;100.00;100914.44;4938997;28;20295;-85
2022/01/07 01:15:48;;;;;;;;;;;2.50;99.90;;;0.45;100.00;100907.53;4955776;28;20478;-85
2022/01/07 01:18:15;;;;;;;;;;;3.30;99.90;;;0.37;100.00;100905.66;4940408;28;19932;-85
2022/01/07 01:20:42;;;;;;;;;;;3.50;99.90;;;0.39;100.00;100901.38;4940375;28;19973;-85
2022/01/07 01:23:09;;;;;;;;;;;1.00;99.90;;;0.47;100.00;100911.94;4939980;28;20418;-82
2022/01/07 01:25:36;;;;;;;;;;;2.50;99.90;;;0.41;100.00;100909.19;4957865;28;20574;-82
2022/01/07 01:28:04;;;;;;;;;;;3.60;99.90;;;0.46;100.00;100906.69;4959308;28;19937;-83
2022/01/07 01:30:33;;;;;;;;;;;1.20;99.90;;;0.48;100.00;100918.88;4960373;28;19966;-82
2022/01/07 01:33:00;;;;;;;;;;;5.20;99.90;;;0.47;100.00;100906.75;4943752;28;19933;-82
2022/01/07 01:35:27;;;;;;;;;;;0.90;99.90;;;0.45;100.00;100899.78;4971211;28;20675;-82
2022/01/07 01:37:54;;;;;;;;;;;0.00;99.90;;;0.40;100.00;100897.94;4954492;28;20384;-81
2022/01/07 01:40:21;;;;;;;;;;;0.50;99.90;;;0.38;100.00;100903.91;4953791;28;20379;-83
2022/01/07 01:42:52;;;;;;;;;;;2.70;99.90;;;0.37;100.00;100897.88;4968845;28;19926;-82
2022/01/07 01:45:20;;;;;;;;;;;4.30;99.90;;;0.39;100.00;100903.06;4953779;28;20397;-83
2022/01/07 01:47:47;;;;;;;;;;;2.90;99.90;;;0.40;100.00;100905.72;4949873;28;19985;-83
2022/01/07 01:50:14;;;;;;;;;;;2.20;99.90;;;0.44;100.00;100896.31;4937665;28;20630;-83
2022/01/07 01:52:45;;;;;;;;;;;0.60;99.90;;;0.33;100.00;100895.16;4969088;28;19930;-82
2022/01/07 01:55:13;;;;;;;;;;;-1.40;99.90;;;0.26;100.00;100894.13;4953110;28;20612;-82
2022/01/07 01:57:40;;;;;;;;;;;2.60;99.90;;;0.27;100.00;100886.41;4932605;29;19952;-83
2022/01/07 02:00:09;;;;;;;;;;;4.10;99.90;;;0.25;100.00;100885.50;4934532;29;19926;-82
2022/01/07 02:02:39;;;;;;;;;;;1.70;99.90;;;0.25;100.00;100882.91;4934320;29;20547;-81
2022/01/07 02:05:06;;;;;;;;;;;4.10;99.90;;;0.19;100.00;100884.44;4949789;29;20509;-81
2022/01/07 02:07:35;;;;;;;;;;;0.80;99.90;;;0.35;100.00;100891.78;4934606;29;19933;-81
2022/01/07 02:10:07;;;;;;;;;;;4.50;99.90;;;0.35;100.00;100878.84;4933331;29;20033;-81
2022/01/07 02:12:34;;;;;;;;;;;1.10;99.90;;;0.34;100.00;100878.78;4963556;28;19930;-81
2022/01/07 02:15:01;;;;;;;;;;;-0.50;99.90;;;0.38;100.00;100881.50;4931488;29;19930;-82
2022/01/07 02:17:28;;;;;;;;;;;0.90;99.90;;;0.33;100.00;100882.22;4932825;28;19926;-82
2022/01/07 02:19:56;;;;;;;;;;;3.20;99.90;;;0.36;100.00;100871.94;4952920;29;19934;-82
2022/01/07 02:22:23;;;;;;;;;;;4.00;99.90;;;0.33;100.00;100865.00;4955725;29;20400;-83
2022/01/07 02:24:51;;;;;;;;;;;-1.20;99.90;;;0.35;100.00;100873.66;4952068;28;19968;-81
2022/01/07 02:27:19;;;;;;;;;;;0.80;99.90;;;0.33;100.00;100866.69;4950721;29;19930;-83
2022/01/07 02:29:48;;;;;;;;;;;2.40;99.90;;;0.38;100.00;100865.06;4934455;29;20027;-82
2022/01/07 02:32:17;;;;;;;;;;;0.70;99.90;;;0.37;100.00;100860.75;4950343;28;20041;-81
2022/01/07 02:34:48;;;;;;;;;;;4.90;99.90;;;0.41;100.00;100871.22;4950152;29;19930;-82
2022/01/07 02:37:15;;;;;;;;;;;1.10;99.90;;;0.41;100.00;100872.94;4949829;29;20021;-83
2022/01/07 02:39:45;;;;;;;;;;;1.20;99.90;;;0.35;100.00;100863.31;4934328;29;19930;-82
2022/01/07 02:42:12;;;;;;;;;;;3.60;99.90;;;0.31;100.00;100853.69;4950213;28;20024;-82
2022/01/07 02:44:39;;;;;;;;;;;4.50;99.90;;;0.28;100.00;100851.03;4949568;28;20029;-83
2022/01/07 02:47:06;;;;;;;;;;;3.60;99.90;;;0.30;100.00;100851.94;4934911;29;19930;-83
2022/01/07 02:49:33;;;;;;;;;;;0.40;99.90;;;0.25;100.00;100840.59;4950801;29;20014;-82
2022/01/07 02:52:00;;;;;;;;;;;3.10;99.90;;;0.35;100.00;100847.78;4950609;29;19930;-83
2022/01/07 02:54:27;;;;;;;;;;;1.70;99.90;;;0.28;100.00;100838.97;4933655;29;19936;-83
2022/01/07 02:56:54;;;;;;;;;;;2.70;99.90;;;0.25;100.00;100838.91;4934882;29;19932;-82
2022/01/07 02:59:21;;;;;;;;;;;3.80;99.90;;;0.28;100.00;100845.84;4951055;29;19931;-81
2022/01/07 03:01:48;;;;;;;;;;;0.20;99.90;;;0.28;100.00;100840.66;4929161;28;19968;-82
2022/01/07 03:04:15;;;;;;;;;;;3.90;99.90;;;0.27;100.00;100833.75;4937114;28;19934;-82
2022/01/07 03:06:43;;;;;;;;;;;0.10;99.90;;;0.27;100.00;100834.63;4970073;28;19984;-83
2022/01/07 03:09:10;;;;;;;;;;;3.40;99.90;;;0.23;100.00;100829.34;4938889;28;20398;-82
2022/01/07 03:11:37;;;;;;;;;;;3.50;99.90;;;0.21;100.00;100836.19;4954569;28;19933;-83
2022/01/07 03:14:04;;;;;;;;;;;3.30;99.90;;;0.27;100.00;100844.09;4952517;28;19930;-82
2022/01/07 03:16:31;;;;;;;;;;;0.80;99.90;;;0.21;100.00;100834.47;4953890;28;20375;-82
2022/01/07 03:18:58;;;;;;;;;;;4.10;99.90;;;0.15;100.00;100831.72;4953819;28;19926;-82
2022/01/07 03:21:25;;;;;;;;;;;2.90;99.90;;;0.08;100.00;100825.50;4938558;28;19931;-83
2022/01/07 03:23:52;;;;;;;;;;;3.50;99.90;;;0.08;100.00;100832.38;4952200;28;20025;-83
2022/01/07 03:26:19;;;;;;;;;;;0.00;99.90;;;0.05;100.00;100832.31;4937792;28;19930;-82
2022/01/07 03:28:47;;;;;;;;;;;2.20;99.90;;;0.12;100.00;100842.00;4953425;28;19930;-82
2022/01/07 03:31:14;;;;;;;;;;;3.20;99.90;;;0.07;100.00;100836.69;4953824;28;20578;-82
2022/01/07 03:33:41;;;;;;;;;;;3.90;99.90;;;0.13;100.00;100833.41;4952954;28;19930;-83
2022/01/07 03:36:08;;;;;;;;;;;3.90;99.90;;;0.06;100.00;100822.00;4953685;28;19930;-83
2022/01/07 03:38:35;;;;;;;;;;;3.40;99.90;;;0.10;100.00;100826.41;4953065;28;20037;-83
2022/01/07 03:41:02;;;;;;;;;;;-0.80;99.90;;;-0.01;100.00;100814.91;4954325;28;19937;-83
2022/01/07 03:43:29;;;;;;;;;;;2.90;99.90;;;0.03;100.00;100821.94;4953970;28;19930;-83
2022/01/07 03:45:56;;;;;;;;;;;0.60;99.90;;;0.08;100.00;100824.63;4939272;28;20252;-82
2022/01/07 03:48:23;;;;;;;;;;;4.00;99.90;;;0.03;100.00;100819.34;4938516;28;19930;-82
2022/01/07 03:50:50;;;;;;;;;;;-0.20;99.90;;;0.17;100.00;100829.19;4954198;28;19941;-83
2022/01/07 03:53:17;;;;;;;;;;;3.50;99.90;;;0.19;100.00;100817.16;4952257;28;19945;-83
2022/01/07 03:55:44;;;;;;;;;;;3.80;99.90;;;0.31;100.00;100816.59;4924453;28;19930;-83
2022/01/07 03:58:11;;;;;;;;;;;0.90;99.90;;;0.33;100.00;100822.69;4932423;29;19930;-81
2022/01/07 04:00:40;;;;;;;;;;;3.60;99.90;;;0.28;100.00;100810.50;4915067;29;19930;-82
2022/01/07 04:03:13;;;;;;;;;;;3.40;99.90;;;0.34;100.00;100812.38;4929598;29;19938;-81
2022/01/07 04:05:41;;;;;;;;;;;3.80;99.90;;;0.28;100.00;100800.16;4938053;29;20041;-83
2022/01/07 04:08:08;;;;;;;;;;;0.20;99.90;;;0.38;100.00;100826.25;4934212;29;19986;-82
2022/01/07 04:10:35;;;;;;;;;;;3.80;99.90;;;0.35;100.00;100808.06;4933384;28;19976;-82
2022/01/07 04:13:03;;;;;;;;;;;2.80;99.90;;;0.32;100.00;100801.09;4917608;29;19933;-82
2022/01/07 04:15:30;;;;;;;;;;;2.50;99.90;;;0.37;100.00;100796.91;4917298;28;20025;-83
2022/01/07 04:17:57;;;;;;;;;;;2.90;99.90;;;0.45;100.00;100797.09;4933526;29;19930;-83
2022/01/07 04:20:26;;;;;;;;;;;4.20;99.90;;;0.47;100.00;100800.59;4933289;29;19930;-82
2022/01/07 04:22:54;;;;;;;;;;;4.80;99.90;;;0.55;100.00;100806.84;4931594;29;20310;-82
2022/01/07 04:25:21;;;;;;;;;;;3.70;99.90;;;0.62;100.00;100805.25;4916645;28;20033;-83
2022/01/07 04:27:51;;;;;;;;;;;4.60;99.90;;;0.59;100.00;100801.75;4932578;29;19927;-82
2022/01/07 04:30:20;;;;;;;;;;;3.00;99.90;;;0.59;100.00;100804.34;4932807;29;20391;-83
2022/01/07 04:32:48;;;;;;;;;;;5.00;99.90;;;0.60;100.00;100800.91;4931995;29;20370;-81
2022/01/07 04:35:16;;;;;;;;;;;2.30;99.90;;;0.61;100.00;100805.25;4931991;28;19934;-83
2022/01/07 04:37:43;;;;;;;;;;;5.00;99.90;;;0.64;100.00;100808.78;4919847;29;19931;-82
2022/01/07 04:40:11;;;;;;;;;;;4.10;99.90;;;0.66;100.00;100820.06;4936330;29;19973;-83
2022/01/07 04:42:39;;;;;;;;;;;1.80;99.90;;;0.65;100.00;100812.22;4920419;29;20415;-83
2022/01/07 04:45:07;;;;;;;;;;;5.50;99.90;;;0.68;100.00;100805.41;4935710;29;19935;-80
2022/01/07 04:47:36;;;;;;;;;;;1.20;99.90;;;0.69;100.00;100806.28;4936442;29;20390;-82
2022/01/07 04:50:05;;;;;;;;;;;4.70;99.90;;;0.67;100.00;100805.38;4920332;29;19930;-82
2022/01/07 04:52:32;;;;;;;;;;;1.60;99.90;;;0.77;100.00;100811.63;4919624;29;20343;-83
2022/01/07 04:54:59;;;;;;;;;;;4.50;99.90;;;0.74;100.00;100809.88;4934843;29;20021;-83
2022/01/07 04:57:26;;;;;;;;;;;4.40;99.90;;;0.74;100.00;100807.28;4935998;29;19927;-82
2022/01/07 04:59:53;;;;;;;;;;;3.50;99.90;;;0.79;100.00;100805.66;4932089;29;19931;-82
2022/01/07 05:02:20;;;;;;;;;;;4.70;99.90;;;0.81;100.00;100810.91;4913144;29;19931;-83
2022/01/07 05:04:48;;;;;;;;;;;1.50;99.90;;;0.76;100.00;100792.66;4915600;29;19931;-82
2022/01/07 05:07:16;;;;;;;;;;;4.50;99.90;;;0.83;100.00;100802.28;4916270;28;20343;-82
2022/01/07 05:09:43;;;;;;;;;;;3.50;99.90;;;0.77;100.00;100791.81;4931355;29;19962;-82
2022/01/07 05:12:10;;;;;;;;;;;5.00;99.90;;;0.82;100.00;100797.09;4915655;28;19931;-82
2022/01/07 05:14:37;;;;;;;;;;;1.70;99.90;;;0.80;100.00;100784.09;4930529;28;19931;-83
2022/01/07 05:17:04;;;;;;;;;;;6.10;99.90;;;0.83;100.00;100780.72;4931041;29;19970;-83
2022/01/07 05:19:31;;;;;;;;;;;1.10;99.90;;;0.89;100.00;100782.56;4931526;29;19937;-82
2022/01/07 05:21:58;;;;;;;;;;;2.70;99.90;;;0.90;100.00;100777.41;4932125;29;20319;-81
2022/01/07 05:24:25;;;;;;;;;;;4.50;99.90;;;0.87;100.00;100771.31;4914980;29;19935;-82
2022/01/07 05:26:52;;;;;;;;;;;5.80;99.90;;;0.93;100.00;100763.66;4915677;28;19970;-82
2022/01/07 05:29:19;;;;;;;;;;;1.60;99.90;;;1.02;100.00;100768.16;4915362;28;20713;-82
2022/01/07 05:31:46;;;;;;;;;;;4.80;99.90;;;1.06;100.00;100776.03;4955869;28;19976;-82
2022/01/07 05:34:13;;;;;;;;;;;3.80;99.90;;;1.12;100.00;100776.16;4951837;28;19936;-82
2022/01/07 05:36:40;;;;;;;;;;;-0.20;99.90;;;1.18;100.00;100779.75;4953579;28;19930;-83
2022/01/07 05:39:07;;;;;;;;;;;6.10;99.90;;;1.19;100.00;100777.16;4953210;28;19937;-82
2022/01/07 05:41:34;;;;;;;;;;;3.30;99.90;;;1.23;100.00;100778.09;4953011;28;20021;-82
2022/01/07 05:44:01;;;;;;;;;;;0.80;99.90;;;1.32;100.00;100767.06;4936334;28;19930;-82
2022/01/07 05:46:28;;;;;;;;;;;4.20;99.90;;;1.33;100.00;100766.22;4951480;28;19937;-83
2022/01/07 05:51:50;;;;;;;;;;;0.40;99.90;;;1.31;100.00;100763.56;4959812;28;20021;-83
2022/01/07 05:54:31;;;;;;;;;;;5.70;99.90;;;1.41;100.00;100756.88;4951419;28;20004;-83
2022/01/07 05:57:07;;;;;;;;;;;4.40;99.90;;;1.45;100.00;100752.59;4937536;29;19931;-82
2022/01/07 05:59:34;;;;;;;;;;;1.70;99.90;;;1.44;100.00;100746.56;4949799;29;20017;-79
2022/01/07 06:02:02;;;;;;;;;;;4.00;99.90;;;1.48;100.00;100748.38;4936181;28;19941;-80
2022/01/07 06:04:29;;;;;;;;;;;1.60;99.90;;;1.46;100.00;100742.28;4949922;28;20391;-79
2022/01/07 06:06:56;;;;;;;;;;;5.60;99.90;;;1.49;100.00;100746.66;4933225;28;19934;-80
2022/01/07 06:09:23;;;;;;;;;;;2.00;99.90;;;1.57;100.00;100733.84;4954764;29;19930;-79
2022/01/07 06:11:50;;;;;;;;;;;3.60;99.90;;;1.62;100.00;100732.19;4958347;28;19931;-79
2022/01/07 06:14:19;;;;;;;;;;;4.60;99.90;;;1.61;100.00;100736.50;4972741;28;20022;-79
2022/01/07 06:16:46;;;;;;;;;;;2.10;99.90;;;1.64;100.00;100739.16;4955503;29;19937;-79
2022/01/07 06:19:13;;;;;;;;;;;4.10;99.90;;;1.64;100.00;100739.16;4955031;29;19975;-79
2022/01/07 06:21:40;;;;;;;;;;;5.60;99.90;;;1.68;100.00;100735.78;4955887;29;19941;-79
2022/01/07 06:24:07;;;;;;;;;;;5.30;99.90;;;1.69;100.00;100726.25;4959802;29;19937;-79
2022/01/07 06:26:34;;;;;;;;;;;4.40;99.90;;;1.72;100.00;100722.84;4958391;29;20286;-79
2022/01/07 06:29:01;;;;;;;;;;;1.10;99.90;;;1.73;100.00;100725.50;4971438;28;19930;-79
2022/01/07 06:31:28;;;;;;;;;;;4.70;99.90;;;1.73;100.00;100734.97;4955863;29;20380;-79
2022/01/07 06:33:56;;;;;;;;;;;4.80;99.90;;;1.70;100.00;100728.00;4956043;29;19937;-79
2022/01/07 06:36:24;;;;;;;;;;;4.90;99.90;;;1.71;100.00;100732.34;4956239;29;19937;-79
2022/01/07 06:38:51;;;;;;;;;;;4.60;99.90;;;1.67;100.00;100727.94;4971249;28;19937;-79
2022/01/07 06:41:17;;;;;;;;;;;4.60;99.90;;;1.69;100.00;100728.84;4970971;28;20564;-79
2022/01/07 06:43:44;;;;;;;;;;;4.40;99.90;;;1.67;100.00;100731.44;4954763;29;20283;-79
2022/01/07 06:46:12;;;;;;;;;;;2.30;99.90;;;1.68;100.00;100725.41;4955389;29;19930;-80
2022/01/07 06:48:41;;;;;;;;;;;4.40;99.90;;;1.71;100.00;100724.56;4955244;29;19927;-79
2022/01/07 06:51:07;;;;;;;;;;;6.20;99.90;;;1.70;100.00;100723.69;4955419;28;19931;-80
2022/01/07 06:53:34;;;;;;;;;;;2.30;99.90;;;1.72;100.00;100722.84;4954652;29;19927;-79
2022/01/07 06:56:03;;;;;;;;;;;4.00;99.90;;;1.74;100.00;100723.75;4970824;28;20344;-79
2022/01/07 06:58:30;;;;;;;;;;;2.10;99.90;;;1.78;100.00;100717.75;4971817;28;20736;-79
2022/01/07 07:00:57;;;;;;;;;;;2.60;99.90;;;1.74;100.00;100722.03;4950053;28;19930;-80
2022/01/07 07:03:24;;;;;;;;;;;2.30;99.90;;;1.75;100.00;100718.59;4967702;28;19941;-81
2022/01/07 07:05:51;;;;;;;;;;;2.10;99.90;;;1.82;100.00;100714.41;4970682;28;19930;-80
2022/01/07 07:08:18;;;;;;;;;;;5.30;99.90;;;1.84;100.00;100716.16;4955546;28;20317;-79
2022/01/07 07:10:48;;;;;;;;;;;2.50;99.90;;;1.83;100.00;100710.94;4969450;28;19937;-79
2022/01/07 07:13:15;;;;;;;;;;;5.10;99.90;;;1.81;100.00;100708.31;4952000;28;20314;-80
2022/01/07 07:15:41;;;;;;;;;;;2.50;99.90;;;1.83;100.00;100701.44;4950721;28;20439;-80
2022/01/07 07:18:08;;;;;;;;;;;2.20;99.90;;;1.87;100.00;100706.66;4949243;28;19927;-82
2022/01/07 07:20:35;;;;;;;;;;;4.70;99.90;;;1.85;100.00;100706.66;4949396;28;19930;-78
2022/01/07 07:23:02;;;;;;;;;;;2.40;99.90;;;1.90;100.00;100712.78;4965308;28;19934;-77
2022/01/07 07:25:29;;;;;;;;;;;3.00;99.90;;;1.87;100.00;100697.19;4965549;28;19959;-78
2022/01/07 07:27:59;;;;;;;;;;;2.30;99.90;;;1.90;100.00;100701.56;4965916;28;19930;-78
2022/01/07 07:30:34;;;;;;;;;;;2.50;99.90;;;1.90;100.00;100692.03;4949898;28;20380;-77
2022/01/07 07:33:56;;;;;;;;;;;2.60;99.90;;;1.92;100.00;100689.47;4965009;28;19937;-78
2022/01/07 07:38:43;;;;;;;;;;;2.40;99.90;;;1.92;100.00;100698.13;4965475;28;19930;-78
2022/01/07 07:41:13;;;;;;;;;;;4.20;99.90;;;1.96;100.00;100694.75;4931812;28;19937;-78
2022/01/07 07:43:41;;;;;;;;;;;2.40;99.90;;;1.98;100.00;100693.06;4929791;29;19930;-77
2022/01/07 07:46:08;;;;;;;;;;;5.50;99.90;;;2.02;100.00;100687.91;4945625;29;19930;-77
2022/01/07 07:48:35;;;;;;;;;;;2.40;99.90;;;2.04;100.00;100688.78;4945541;29;19988;-78
2022/01/07 07:51:02;;;;;;;;;;;4.40;99.90;;;2.08;100.00;100686.28;4945963;28;19936;-78
2022/01/07 07:53:29;;;;;;;;;;;2.50;99.90;;;2.09;100.00;100689.72;4944785;29;19956;-78
2022/01/07 07:55:56;;;;;;;;;;;2.90;99.90;;;2.11;100.00;100680.28;4928287;29;19931;-77
2022/01/07 07:58:24;;;;;;;;;;;2.50;99.90;;;2.16;100.00;100688.09;4959620;28;19927;-77
2022/01/07 08:00:51;;;;;;;;;;;2.60;99.90;;;2.18;100.00;100676.91;4943916;29;19931;-77
2022/01/07 08:03:20;;;;;;;;;;;2.60;99.90;;;2.19;100.00;100678.66;4924944;29;19931;-77
2022/01/07 08:05:48;;;;;;;;;;;4.70;99.90;;;2.21;100.00;100678.69;4945510;28;19930;-76
2022/01/07 08:08:15;;;;;;;;;;;2.70;99.90;;;2.23;100.00;100664.84;4967572;28;19931;-76
2022/01/07 08:10:51;;;;;;;;;;;2.70;99.90;;;2.28;100.00;100677.91;4927357;29;19930;-76
2022/01/07 08:16:02;;;;;;;;;;;2.70;99.90;;;2.31;100.00;100677.09;4947878;28;19931;-76
2022/01/07 08:18:37;;;;;;;;;;;3.00;99.90;;;2.33;100.00;100668.47;4973907;28;19931;-76
2022/01/07 08:21:09;;;;;;;;;;;2.80;99.90;;;2.36;100.00;100671.13;4977106;28;19927;-77
2022/01/07 08:23:38;;;;;;;;;;;5.30;99.90;;;2.39;100.00;100665.09;4977744;28;20415;-76
2022/01/07 08:26:09;;;;;;;;;;;5.60;99.90;;;2.43;100.00;100663.41;4982017;28;19937;-77
2022/01/07 08:28:44;;;;;;;;;;;4.90;99.90;;;2.48;100.00;100657.44;4968589;28;19934;-77
2022/01/07 08:31:25;;;;;;;;;;;2.90;99.90;;;2.53;100.00;100653.16;4953292;28;19930;-77
2022/01/07 08:36:38;;;;;;;;;;;2.90;99.90;;;2.52;100.00;100651.44;4974323;28;19952;-76
2022/01/07 08:39:07;;;;;;;;;;;3.30;99.90;;;2.63;100.00;100648.09;4946663;29;19962;-77
2022/01/07 08:41:34;;;;;;;;;;;3.00;99.90;;;2.61;100.00;100649.81;4930531;29;19966;-77
2022/01/07 08:44:03;;;;;;;;;;;5.80;99.90;;;2.68;100.00;100654.22;4945955;29;19930;-76
2022/01/07 08:46:30;;;;;;;;;;;3.00;99.90;;;2.68;100.00;100646.44;4946509;28;19926;-78
2022/01/07 08:48:58;;;;;;;;;;;3.20;99.90;;;2.71;100.00;100651.66;4947674;28;20652;-77
2022/01/07 08:51:28;;;;;;;;;;;3.50;99.90;;;2.69;100.00;100651.66;4946958;29;19931;-77
2022/01/07 08:53:55;;;;;;;;;;;3.20;99.90;;;2.76;100.00;100649.13;4946610;29;20021;-77
2022/01/07 08:56:23;;;;;;;;;;;3.10;99.90;;;2.72;100.00;100647.34;4946616;28;20315;-77
2022/01/07 08:58:51;;;;;;;;;;;3.10;99.90;;;2.73;100.00;100655.16;4946514;29;20443;-77
2022/01/07 09:01:19;;;;;;;;;;;4.90;99.90;;;2.82;100.00;100655.28;4946030;29;19937;-77
2022/01/07 09:03:47;;;;;;;;;;;3.20;99.90;;;2.79;100.00;100650.03;4946008;29;20454;-77
2022/01/07 09:06:13;;;;;;;;;;;3.20;99.90;;;2.88;100.00;100658.78;4930319;29;20323;-77
2022/01/07 09:08:40;;;;;;;;;;;3.40;99.90;;;2.87;100.00;100659.66;4945438;28;19936;-76
2022/01/07 09:11:08;;;;;;;;;;;3.30;99.90;;;2.81;100.00;100658.72;4950377;28;19935;-78
2022/01/07 09:13:34;;;;;;;;;;;6.00;99.90;;;2.87;100.00;100657.06;4948007;29;19930;-78
2022/01/07 09:16:02;;;;;;;;;;;3.20;99.90;;;2.90;100.00;100649.31;4931830;29;19926;-76
2022/01/07 09:18:31;;;;;;;;;;;3.40;99.90;;;2.90;100.00;100646.72;4949094;28;20355;-76
2022/01/07 09:20:59;;;;;;;;;;;2.80;99.90;;;2.89;100.00;100640.63;4948939;29;20302;-77
2022/01/07 09:23:26;;;;;;;;;;;3.40;99.90;;;2.95;100.00;100637.25;4946478;28;19966;-74
2022/01/07 09:25:53;;;;;;;;;;;6.10;99.90;;;3.04;100.00;100639.91;4948778;28;19930;-76
2022/01/07 09:28:20;;;;;;;;;;;3.50;99.90;;;2.99;100.00;100633.81;4947302;28;20672;-77
2022/01/07 09:30:47;;;;;;;;;;;4.10;99.90;;;3.02;100.00;100638.19;4913098;29;19931;-76
2022/01/07 09:33:14;;;;;;;;;;;3.80;99.90;;;3.04;100.00;100636.47;4943332;28;19931;-79
2022/01/07 09:35:41;;;;;;;;;;;3.70;99.90;;;3.02;100.00;100639.03;4924341;28;19930;-80
2022/01/07 09:38:08;;;;;;;;;;;3.40;99.90;;;3.01;100.00;100650.28;4930407;29;19934;-79
2022/01/07 09:40:35;;;;;;;;;;;4.80;99.90;;;2.97;100.00;100646.81;4941519;28;20043;-78
2022/01/07 09:43:06;;;;;;;;;;;3.50;99.90;;;2.96;100.00;100639.84;4931848;29;19949;-78
2022/01/07 09:45:35;;;;;;;;;;;5.80;99.90;;;2.94;100.00;100653.69;4931638;28;20033;-77
2022/01/07 09:48:03;;;;;;;;;;;3.30;99.90;;;2.99;100.00;100652.00;4941941;28;19937;-78
2022/01/07 09:50:31;;;;;;;;;;;3.70;99.90;;;2.98;100.00;100652.88;4967310;28;19970;-79
2022/01/07 09:53:13;;;;;;;;;;;5.70;99.90;;;2.95;100.00;100650.22;4969108;28;19957;-79
2022/01/07 09:55:42;;;;;;;;;;;6.50;99.90;;;2.98;100.00;100634.66;4939140;28;19933;-80
2022/01/07 09:58:12;;;;;;;;;;;3.10;99.90;;;2.91;100.00;100633.72;4976034;28;19927;-79
2022/01/07 10:00:44;;;;;;;;;;;3.50;99.90;;;2.87;100.00;100631.94;4951826;28;19931;-79
2022/01/07 10:03:16;;;;;;;;;;;3.50;99.90;;;2.79;100.00;100633.56;4921126;29;19981;-79
2022/01/07 10:05:44;;;;;;;;;;;6.10;99.90;;;2.81;100.00;100630.16;4917427;29;20383;-79
2022/01/07 10:08:25;;;;;;;;;;;5.10;99.90;;;2.79;100.00;100626.66;4917386;29;20410;-79
2022/01/07 10:11:14;;;;;;;;;;;3.40;99.90;;;2.82;100.00;100631.03;4935133;29;19934;-78
2022/01/07 10:13:43;;;;;;;;;;;3.30;99.90;;;2.75;100.00;100629.19;4940282;29;19985;-79
2022/01/07 10:16:23;;;;;;;;;;;5.60;99.90;;;2.83;100.00;100620.63;4930394;28;19927;-79
2022/01/07 10:18:51;;;;;;;;;;;3.30;99.90;;;2.89;100.00;100625.03;4935173;28;19931;-77
2022/01/07 10:21:19;;;;;;;;;;;5.70;99.90;;;2.89;100.00;100621.56;4946978;28;19956;-78
2022/01/07 10:23:46;;;;;;;;;;;3.60;99.90;;;2.93;100.00;100623.34;4954120;29;19930;-78
2022/01/07 10:26:18;;;;;;;;;;;3.50;99.90;;;2.83;100.00;100625.84;4942954;29;19931;-80
2022/01/07 10:28:47;;;;;;;;;;;3.60;99.90;;;2.85;100.00;100636.25;4944000;29;19958;-78
2022/01/07 10:31:22;;;;;;;;;;;3.20;99.90;;;2.76;100.00;100633.53;4942907;29;19922;-78
2022/01/07 10:33:52;;;;;;;;;;;3.60;99.90;;;2.78;100.00;100622.31;4950651;28;19935;-79
2022/01/07 10:36:22;;;;;;;;;;;5.50;99.90;;;2.89;100.00;100630.22;4956468;28;20280;-77
2022/01/07 10:38:59;;;;;;;;;;;3.30;99.90;;;2.89;100.00;100622.44;4938028;29;20021;-78
2022/01/07 10:41:26;;;;;;;;;;;3.20;99.90;;;2.83;100.00;100617.19;4939627;29;19938;-78
2022/01/07 10:44:01;;;;;;;;;;;3.60;99.90;;;2.92;100.00;100611.22;4948509;29;20017;-79
2022/01/07 10:46:30;;;;;;;;;;;4.70;99.90;;;2.89;100.00;100613.75;4940305;29;20002;-78
2022/01/07 10:49:02;;;;;;;;;;;5.70;99.90;;;2.87;100.00;100618.06;4936982;29;19930;-76
2022/01/07 10:51:37;;;;;;;;;;;3.20;99.90;;;2.90;100.00;100608.59;4936655;29;20033;-77
2022/01/07 10:54:09;;;;;;;;;;;3.90;99.90;;;2.99;100.00;100600.00;4958566;28;19956;-78
2022/01/07 10:56:37;;;;;;;;;;;3.30;99.90;;;2.98;100.00;100599.16;4936130;28;19931;-78
2022/01/07 10:59:09;;;;;;;;;;;5.70;99.90;;;2.93;100.00;100593.03;4961178;28;19927;-80
2022/01/07 11:01:41;;;;;;;;;;;3.40;99.90;;;3.03;100.00;100593.97;4964687;28;19931;-78
2022/01/07 11:04:11;;;;;;;;;;;3.40;99.90;;;3.02;100.00;100589.66;4932436;29;19939;-80
2022/01/07 11:06:39;;;;;;;;;;;6.80;99.90;;;3.02;100.00;100587.03;4948832;28;20378;-80
2022/01/07 11:09:10;;;;;;;;;;;1.50;99.90;;;3.07;100.00;100587.09;4917813;29;19941;-79
2022/01/07 11:11:44;;;;;;;;;;;3.60;99.90;;;3.02;100.00;100594.00;4948828;29;19931;-78
2022/01/07 11:14:15;;;;;;;;;;;3.30;99.90;;;3.12;100.00;100586.28;4934347;29;19931;-77
2022/01/07 11:16:42;;;;;;;;;;;4.60;99.90;;;3.18;100.00;100576.81;4933997;28;19946;-77
2022/01/07 11:19:10;;;;;;;;;;;3.30;99.90;;;3.24;100.00;100575.13;4919713;28;19936;-79
2022/01/07 11:21:39;;;;;;;;;;;6.00;99.90;;;3.12;100.00;100572.41;4933880;29;19930;-78
2022/01/07 11:24:40;;;;;;;;;;;6.20;99.90;;;3.24;100.00;100564.72;4933653;29;19961;-78
2022/01/07 11:27:08;;;;;;;;;;;3.40;99.90;;;3.17;100.00;100556.84;4933570;29;19962;-78
2022/01/07 11:29:36;;;;;;;;;;;3.90;99.90;;;3.15;100.00;100563.78;4931790;29;19931;-79
2022/01/07 11:32:26;;;;;;;;;;;6.00;99.90;;;3.29;100.00;100567.38;4916525;29;19930;-78
2022/01/07 11:35:16;;;;;;;;;;;3.90;99.90;;;3.30;100.00;100550.91;4931675;29;20182;-79